Time;durP1;ratioP1;P1;durP2;ratioP2;P2;SDS_P1;SDS_P2;PMS_P1;PMS_P2;Temp;Humidity;BMP_temperature;BMP_pressure;BME280_temperature;BME280_humidity;BME280_pressure;Samples;Min_cycle;Max_cycle;Signal;HPM_P1;HPM_P2
2023/03/04 00:01:59;;;;;;;7.93;3.63;;;;;;;20.44;33.31;102569.44;5090933;28;20033;-71
2023/03/04 00:04:24;;;;;;;8.98;4.13;;;;;;;20.29;33.55;102544.63;5082113;28;20052;-71
2023/03/04 00:06:50;;;;;;;6.68;3.72;;;;;;;19.94;33.69;102489.25;5103563;28;20040;-71
2023/03/04 00:09:15;;;;;;;8.38;3.88;;;;;;;20.39;33.74;102569.84;5096892;28;20040;-71
2023/03/04 00:11:40;;;;;;;8.88;3.75;;;;;;;19.91;33.77;102503.00;5100790;28;20025;-72
2023/03/04 00:14:06;;;;;;;6.97;4.18;;;;;;;20.37;33.65;102574.50;5102293;28;20063;-71
2023/03/04 00:16:31;;;;;;;7.93;3.65;;;;;;;19.86;33.57;102489.06;5103755;28;20034;-71
2023/03/04 00:18:57;;;;;;;7.55;3.55;;;;;;;19.90;33.75;102500.47;5095128;28;20520;-71
2023/03/04 00:21:22;;;;;;;6.40;3.10;;;;;;;20.28;33.72;102569.94;5103773;28;20027;-71
2023/03/04 00:23:48;;;;;;;5.32;3.03;;;;;;;20.33;33.72;102570.38;5101021;28;20119;-71
2023/03/04 00:26:14;;;;;;;6.60;3.20;;;;;;;20.32;33.28;102568.69;5084875;28;20035;-71
2023/03/04 00:28:39;;;;;;;6.18;3.05;;;;;;;20.31;33.58;102574.22;5091828;28;20020;-71
2023/03/04 00:31:05;;;;;;;5.80;3.00;;;;;;;20.29;33.91;102568.09;5090058;28;20385;-70
2023/03/04 00:33:31;;;;;;;9.20;4.30;;;;;;;20.23;33.56;102562.25;5104643;28;20055;-71
2023/03/04 00:35:56;;;;;;;7.07;2.80;;;;;;;20.27;33.67;102572.78;5099888;28;20047;-71
2023/03/04 00:38:21;;;;;;;6.32;3.17;;;;;;;20.15;33.86;102548.56;5099069;28;20028;-71
2023/03/04 00:40:47;;;;;;;7.35;3.75;;;;;;;20.24;33.82;102568.50;5093184;28;20039;-71
2023/03/04 00:43:12;;;;;;;7.10;3.42;;;;;;;20.23;33.40;102559.56;5094087;28;20030;-72
2023/03/04 00:45:37;;;;;;;6.40;3.33;;;;;;;20.19;33.79;102554.56;5094277;28;20036;-72
2023/03/04 00:48:05;;;;;;;6.38;3.15;;;;;;;20.20;34.04;102553.56;5092051;28;20036;-72
2023/03/04 00:50:31;;;;;;;5.35;2.92;;;;;;;20.19;33.47;102554.56;5091397;28;20036;-72
2023/03/04 00:52:56;;;;;;;6.70;3.13;;;;;;;19.79;33.60;102498.69;5092837;28;20041;-72
2023/03/04 00:55:21;;;;;;;5.93;3.33;;;;;;;19.80;34.01;102500.44;5090757;28;20028;-72
2023/03/04 00:57:47;;;;;;;8.20;3.55;;;;;;;20.15;33.64;102564.78;5092050;28;20031;-72
2023/03/04 01:00:13;;;;;;;5.60;3.25;;;;;;;19.58;33.88;102468.19;5079482;28;20028;-72
2023/03/04 01:02:38;;;;;;;6.05;2.67;;;;;;;19.91;33.69;102530.00;5077061;28;20036;-72
2023/03/04 01:05:04;;;;;;;5.90;3.00;;;;;;;19.53;33.83;102468.59;5089784;28;20047;-72
2023/03/04 01:07:29;;;;;;;7.00;3.13;;;;;;;19.65;33.95;102494.53;5092653;28;20055;-72
2023/03/04 01:09:55;;;;;;;6.82;3.55;;;;;;;19.61;34.09;102484.13;5089019;28;20017;-71
2023/03/04 01:12:20;;;;;;;6.53;3.75;;;;;;;20.03;33.94;102552.38;5104008;28;20420;-72
2023/03/04 01:14:45;;;;;;;5.03;2.88;;;;;;;20.06;33.84;102559.34;5089320;28;20032;-72
2023/03/04 01:17:11;;;;;;;4.80;2.42;;;;;;;20.04;33.75;102562.16;5094992;28;20048;-72
2023/03/04 01:19:36;;;;;;;5.13;3.13;;;;;;;19.60;33.78;102487.81;5101555;28;20056;-72
2023/03/04 01:22:01;;;;;;;5.97;2.78;;;;;;;20.01;33.85;102562.47;5093092;28;20081;-72
2023/03/04 01:24:28;;;;;;;5.53;2.97;;;;;;;19.98;34.07;102560.03;5087131;28;20031;-72
2023/03/04 01:26:54;;;;;;;6.40;2.70;;;;;;;19.98;34.22;102557.31;5092590;28;20032;-72
2023/03/04 01:29:19;;;;;;;6.00;2.92;;;;;;;19.48;33.92;102487.88;5089128;28;20035;-71
2023/03/04 01:31:44;;;;;;;8.30;3.33;;;;;;;19.93;34.11;102548.78;5091414;28;20029;-71
2023/03/04 01:34:09;;;;;;;5.72;2.35;;;;;;;19.53;33.81;102484.78;5103835;28;20027;-72
2023/03/04 01:36:35;;;;;;;6.47;2.40;;;;;;;19.86;33.80;102542.22;5091548;28;20028;-71
2023/03/04 01:39:00;;;;;;;5.53;2.78;;;;;;;19.85;33.86;102532.41;5089641;28;20039;-71
2023/03/04 01:41:26;;;;;;;6.85;2.88;;;;;;;19.69;34.00;102505.91;5092522;28;20425;-72
2023/03/04 01:43:53;;;;;;;6.20;3.00;;;;;;;19.86;34.04;102539.50;5095799;28;20094;-72
2023/03/04 01:46:20;;;;;;;6.03;2.95;;;;;;;19.86;34.26;102537.66;5108167;28;20044;-72
2023/03/04 01:48:45;;;;;;;5.20;3.17;;;;;;;19.83;33.86;102535.22;5090421;28;20084;-72
2023/03/04 01:51:14;;;;;;;4.60;2.50;;;;;;;19.83;33.92;102531.69;5089777;28;20119;-72
2023/03/04 01:53:40;;;;;;;5.05;2.33;;;;;;;19.83;34.25;102540.63;5099810;28;20039;-72
2023/03/04 01:56:14;;;;;;;4.88;2.63;;;;;;;19.75;34.31;102518.00;5089145;28;20036;-72
2023/03/04 01:58:39;;;;;;;4.15;2.75;;;;;;;19.81;34.29;102530.97;5090244;28;20033;-72
2023/03/04 02:01:04;;;;;;;4.63;2.47;;;;;;;19.79;34.21;102527.53;5097232;28;20038;-72
2023/03/04 02:03:30;;;;;;;3.97;1.88;;;;;;;19.70;34.01;102505.75;5094842;28;20048;-72
2023/03/04 02:05:55;;;;;;;4.47;2.50;;;;;;;19.77;34.31;102516.03;5088095;28;20065;-72
2023/03/04 02:08:22;;;;;;;3.60;2.13;;;;;;;19.75;34.10;102518.84;5092530;28;20024;-72
2023/03/04 02:10:47;;;;;;;5.80;2.40;;;;;;;19.73;34.19;102519.00;5102612;28;20134;-72
2023/03/04 02:13:14;;;;;;;7.20;2.30;;;;;;;19.71;34.05;102526.38;5093089;28;20028;-72
2023/03/04 02:15:40;;;;;;;5.90;2.65;;;;;;;19.71;34.27;102514.75;5088121;28;20025;-71
2023/03/04 02:18:32;;;;;;;4.70;2.30;;;;;;;19.70;34.05;102513.00;5100784;28;20040;-72
2023/03/04 02:21:23;;;;;;;5.53;2.35;;;;;;;19.67;34.05;102506.06;5089601;28;20044;-72
2023/03/04 02:24:14;;;;;;;4.03;2.28;;;;;;;19.65;34.22;102505.31;5099923;28;20032;-71
2023/03/04 02:26:42;;;;;;;7.65;2.47;;;;;;;19.65;34.03;102499.94;5083519;28;20040;-71
2023/03/04 02:29:09;;;;;;;5.67;2.77;;;;;;;19.62;34.33;102500.19;5100779;28;20020;-72
2023/03/04 02:31:38;;;;;;;6.60;2.45;;;;;;;19.61;34.25;102494.94;5101405;28;20277;-71
2023/03/04 02:34:10;;;;;;;;;;;;;;;19.61;34.20;102492.25;5080729;28;20446;-71
2023/03/04 02:36:35;;;;;;;5.05;2.42;;;;;;;19.61;34.31;102497.63;5105624;28;19908;-71
2023/03/04 02:39:12;;;;;;;3.85;2.03;;;;;;;19.27;34.13;102437.66;5102285;28;20162;-72
2023/03/04 02:41:38;;;;;;;3.85;2.13;;;;;;;19.56;34.32;102491.75;5090117;28;20020;-71
2023/03/04 02:44:15;;;;;;;4.50;2.33;;;;;;;19.55;34.38;102490.06;5087919;28;20968;-71
2023/03/04 02:46:40;;;;;;;6.05;2.60;;;;;;;19.54;34.48;102482.94;5087982;28;20024;-71
2023/03/04 02:49:06;;;;;;;5.65;2.25;;;;;;;19.52;34.25;102483.06;5097319;28;20028;-71
2023/03/04 02:51:31;;;;;;;4.65;2.13;;;;;;;19.52;34.18;102490.31;5087320;28;20889;-71
2023/03/04 02:53:56;;;;;;;4.43;2.05;;;;;;;19.35;34.24;102460.28;5092252;28;20029;-71
2023/03/04 02:56:21;;;;;;;4.85;2.50;;;;;;;19.03;34.55;102408.28;5091593;28;20038;-71
2023/03/04 02:58:47;;;;;;;5.18;2.13;;;;;;;19.00;34.32;102400.47;5091579;28;20683;-71
2023/03/04 03:01:12;;;;;;;4.05;2.30;;;;;;;19.46;34.38;102470.13;5089523;28;20032;-72
2023/03/04 03:03:37;;;;;;;4.55;2.10;;;;;;;19.45;34.62;102469.28;5088023;28;20053;-71
2023/03/04 03:06:06;;;;;;;4.55;2.55;;;;;;;19.44;34.59;102475.66;5091607;28;20057;-70
2023/03/04 03:08:31;;;;;;;4.28;1.83;;;;;;;19.41;34.57;102473.25;5089842;28;20037;-70
2023/03/04 03:10:56;;;;;;;5.20;2.20;;;;;;;18.95;34.21;102388.25;5089902;28;20495;-71
2023/03/04 03:13:22;;;;;;;4.38;2.13;;;;;;;18.90;34.71;102384.22;5088133;28;20107;-71
2023/03/04 03:15:47;;;;;;;4.15;2.15;;;;;;;19.40;34.37;102468.81;5090867;28;20032;-71
2023/03/04 03:18:12;;;;;;;5.78;2.17;;;;;;;19.03;34.65;102405.59;5100581;28;20020;-71
2023/03/04 03:20:38;;;;;;;4.53;2.17;;;;;;;18.90;34.54;102397.72;5091334;28;20032;-70
2023/03/04 03:23:05;;;;;;;4.28;2.20;;;;;;;19.29;34.60;102451.88;5086678;28;20446;-71
2023/03/04 03:25:31;;;;;;;2.85;1.60;;;;;;;19.35;34.77;102460.28;5091173;28;20028;-71
2023/03/04 03:27:56;;;;;;;3.60;2.00;;;;;;;19.17;34.18;102437.63;5088325;28;20016;-72
2023/03/04 03:30:21;;;;;;;4.88;2.22;;;;;;;19.33;34.23;102464.97;5091628;28;20024;-72
2023/03/04 03:32:47;;;;;;;4.05;1.95;;;;;;;19.22;34.40;102438.91;5085483;28;20035;-72
2023/03/04 03:35:12;;;;;;;5.78;2.50;;;;;;;19.31;34.53;102453.44;5092723;28;20028;-72
2023/03/04 03:37:37;;;;;;;3.25;1.88;;;;;;;19.28;34.61;102447.44;5090155;28;20052;-72
2023/03/04 03:40:06;;;;;;;3.88;2.15;;;;;;;19.28;34.21;102448.31;5091385;28;20544;-72
2023/03/04 03:42:31;;;;;;;5.22;2.08;;;;;;;18.47;34.40;102310.63;5089441;28;20032;-72
2023/03/04 03:44:56;;;;;;;3.85;2.42;;;;;;;19.27;34.63;102441.22;5088812;28;20040;-72
2023/03/04 03:47:28;;;;;;;2.70;1.48;;;;;;;19.27;34.67;102440.34;5092762;28;20055;-72
2023/03/04 03:49:53;;;;;;;4.25;1.88;;;;;;;19.27;34.47;102449.28;5098529;28;20107;-72
2023/03/04 03:52:18;;;;;;;4.28;1.83;;;;;;;19.26;34.62;102441.34;5091773;28;20504;-72
2023/03/04 03:54:43;;;;;;;4.47;2.20;;;;;;;19.21;34.54;102437.22;5089444;28;20032;-72
2023/03/04 03:57:09;;;;;;;4.25;2.17;;;;;;;19.25;34.66;102437.81;5084542;28;20127;-72
2023/03/04 03:59:34;;;;;;;2.95;1.70;;;;;;;19.26;34.57;102444.91;5090328;28;20086;-72
2023/03/04 04:01:59;;;;;;;4.70;1.73;;;;;;;19.25;34.43;102448.59;5087425;28;20070;-72
2023/03/04 04:04:25;;;;;;;5.63;2.00;;;;;;;19.23;34.46;102448.69;5093879;28;20052;-72
2023/03/04 04:06:50;;;;;;;3.03;1.55;;;;;;;19.22;34.05;102444.31;5093007;28;20029;-70
2023/03/04 04:09:15;;;;;;;3.65;1.90;;;;;;;19.25;34.65;102448.59;5089622;28;20051;-72
2023/03/04 04:11:41;;;;;;;3.83;1.83;;;;;;;19.26;34.52;102455.69;5088845;28;20039;-72
2023/03/04 04:14:08;;;;;;;5.22;1.80;;;;;;;18.79;34.58;102370.84;5101746;28;20033;-72
2023/03/04 04:16:33;;;;;;;4.13;2.20;;;;;;;19.22;34.79;102441.59;5100909;28;20040;-72
2023/03/04 04:18:59;;;;;;;4.03;1.83;;;;;;;19.25;34.29;102445.91;5094341;28;20044;-72
2023/03/04 04:21:24;;;;;;;3.20;1.75;;;;;;;19.23;34.43;102440.63;5089921;28;20028;-72
2023/03/04 04:23:49;;;;;;;4.43;1.85;;;;;;;19.27;34.57;102445.75;5098933;28;20477;-72
2023/03/04 04:26:15;;;;;;;3.90;1.70;;;;;;;19.27;34.47;102446.59;5099577;28;20048;-72
2023/03/04 04:28:40;;;;;;;3.67;1.80;;;;;;;19.27;34.59;102440.34;5087875;28;20074;-72
2023/03/04 04:31:07;;;;;;;4.00;1.95;;;;;;;19.27;34.51;102437.66;5092542;28;20107;-72
2023/03/04 04:33:33;;;;;;;2.92;1.90;;;;;;;19.27;33.96;102437.66;5102972;28;20185;-72
2023/03/04 04:36:00;;;;;;;3.83;1.60;;;;;;;19.20;34.39;102427.41;5103203;28;20511;-72
2023/03/04 04:38:25;;;;;;;1.95;1.33;;;;;;;19.28;34.35;102440.22;5090000;28;20029;-72
2023/03/04 04:40:50;;;;;;;3.80;1.80;;;;;;;19.28;34.44;102442.91;5094595;28;20674;-72
2023/03/04 04:43:15;;;;;;;2.78;1.70;;;;;;;19.26;34.16;102434.13;5098605;28;20028;-72
2023/03/04 04:45:41;;;;;;;3.75;1.85;;;;;;;19.29;34.38;102441.94;5092916;28;20055;-72
2023/03/04 04:48:07;;;;;;;2.35;1.58;;;;;;;19.31;34.53;102441.81;5091823;28;20032;-72
2023/03/04 04:50:32;;;;;;;2.60;1.50;;;;;;;19.19;34.44;102428.38;5080039;28;20052;-72
2023/03/04 04:52:57;;;;;;;3.03;1.60;;;;;;;18.89;34.50;102385.22;5102833;28;20043;-72
2023/03/04 04:55:22;;;;;;;2.63;1.40;;;;;;;19.33;34.13;102447.94;5090728;28;20119;-73
2023/03/04 04:57:48;;;;;;;4.03;1.60;;;;;;;19.33;34.39;102445.22;5090184;28;20086;-72
2023/03/04 05:00:13;;;;;;;3.20;1.73;;;;;;;19.32;34.42;102441.66;5077423;28;20027;-73
2023/03/04 05:02:39;;;;;;;3.55;1.60;;;;;;;19.34;34.19;102447.78;5102964;28;20056;-72
2023/03/04 05:05:06;;;;;;;3.65;1.90;;;;;;;19.20;34.30;102422.03;5096465;28;20501;-72
2023/03/04 05:07:31;;;;;;;4.45;1.60;;;;;;;19.04;34.24;102393.84;5090806;28;20059;-72
2023/03/04 05:09:57;;;;;;;2.90;1.45;;;;;;;19.35;34.28;102454.88;5086490;28;20032;-72
2023/03/04 05:12:22;;;;;;;4.13;1.63;;;;;;;19.36;34.28;102439.53;5094112;28;20091;-71
2023/03/04 05:14:47;;;;;;;3.58;1.45;;;;;;;19.38;34.00;102441.13;5095842;28;20040;-72
2023/03/04 05:17:13;;;;;;;3.45;1.45;;;;;;;19.32;33.92;102433.56;5089087;28;20024;-72
2023/03/04 05:19:38;;;;;;;4.38;1.80;;;;;;;18.89;34.16;102355.59;5095974;28;20098;-72
2023/03/04 05:22:03;;;;;;;3.17;1.65;;;;;;;19.40;34.31;102441.00;5091650;28;20085;-72
2023/03/04 05:24:28;;;;;;;2.45;1.50;;;;;;;18.97;33.83;102367.41;5091504;28;20083;-71
2023/03/04 05:26:54;;;;;;;3.47;1.30;;;;;;;19.41;34.03;102438.19;5088111;28;20118;-72
2023/03/04 05:29:19;;;;;;;3.13;1.35;;;;;;;18.93;34.21;102357.03;5103375;28;20032;-72
2023/03/04 05:31:44;;;;;;;3.95;1.70;;;;;;;19.41;34.01;102438.19;5093217;28;20090;-72
2023/03/04 05:34:10;;;;;;;3.08;1.85;;;;;;;19.43;33.87;102429.94;5095955;28;20028;-75
2023/03/04 05:36:35;;;;;;;2.65;1.30;;;;;;;19.37;33.87;102423.25;5088768;28;20794;-71
2023/03/04 05:39:00;;;;;;;3.45;1.45;;;;;;;19.46;33.88;102445.88;5095739;28;20028;-69
2023/03/04 05:41:26;;;;;;;2.67;1.40;;;;;;;19.46;33.88;102435.91;5080976;28;20032;-70
2023/03/04 05:43:51;;;;;;;4.05;1.88;;;;;;;19.47;34.18;102443.00;5100331;28;20094;-70
2023/03/04 05:46:17;;;;;;;2.58;1.50;;;;;;;19.31;34.07;102410.28;5098398;28;20357;-68
2023/03/04 05:48:43;;;;;;;3.90;1.80;;;;;;;19.51;33.87;102448.16;5080753;28;20050;-70
2023/03/04 05:51:09;;;;;;;4.68;1.88;;;;;;;19.52;34.18;102445.31;5100429;28;20012;-70
2023/03/04 05:53:39;;;;;;;2.75;1.25;;;;;;;19.06;33.81;102368.44;5095890;28;20024;-70
2023/03/04 05:56:09;;;;;;;3.35;1.75;;;;;;;19.54;34.06;102443.34;5098333;28;20031;-73
2023/03/04 05:58:34;;;;;;;2.78;1.50;;;;;;;18.89;34.20;102331.31;5090931;28;20032;-70
2023/03/04 06:01:00;;;;;;;3.80;1.77;;;;;;;19.56;34.16;102441.34;5097987;28;20113;-69
2023/03/04 06:03:25;;;;;;;3.17;1.63;;;;;;;19.58;34.52;102443.91;5080308;28;20067;-69
2023/03/04 06:05:50;;;;;;;4.07;1.80;;;;;;;19.57;34.61;102436.81;5099137;28;20047;-70
2023/03/04 06:08:15;;;;;;;3.03;1.35;;;;;;;19.50;34.58;102420.31;5100171;28;20445;-70
2023/03/04 06:10:41;;;;;;;4.53;1.92;;;;;;;19.66;34.48;102438.72;5097704;28;20110;-70
2023/03/04 06:13:07;;;;;;;2.10;1.35;;;;;;;19.56;34.60;102417.06;5097914;28;20023;-69
2023/03/04 06:15:32;;;;;;;3.28;1.50;;;;;;;19.32;34.74;102378.78;5098484;28;20480;-69
2023/03/04 06:17:58;;;;;;;3.20;1.45;;;;;;;19.72;34.80;102443.59;5100481;28;20024;-68
2023/03/04 06:20:23;;;;;;;2.58;1.55;;;;;;;19.29;34.84;102371.81;5100713;28;20024;-70
2023/03/04 06:22:48;;;;;;;3.28;1.27;;;;;;;19.74;34.65;102438.88;5096341;28;20037;-69
2023/03/04 06:25:14;;;;;;;2.65;1.17;;;;;;;19.76;34.85;102447.72;5098780;28;20019;-68
2023/03/04 06:27:40;;;;;;;3.05;1.30;;;;;;;19.77;34.71;102444.03;5101853;28;20516;-69
2023/03/04 06:30:06;;;;;;;1.92;1.00;;;;;;;19.79;34.52;102447.41;5098931;28;20564;-69
2023/03/04 06:32:31;;;;;;;2.92;1.30;;;;;;;19.39;34.47;102379.94;5096474;28;20512;-68
2023/03/04 06:34:56;;;;;;;4.65;1.50;;;;;;;19.81;34.75;102450.00;5102393;28;20023;-70
2023/03/04 06:37:22;;;;;;;2.70;1.45;;;;;;;19.82;34.83;102447.16;5100697;28;20032;-70
2023/03/04 06:39:47;;;;;;;3.20;1.27;;;;;;;19.84;35.14;102455.13;5095796;28;20042;-71
2023/03/04 06:42:12;;;;;;;2.45;1.25;;;;;;;19.34;34.80;102364.19;5091600;28;20040;-69
2023/03/04 06:44:38;;;;;;;4.30;1.83;;;;;;;19.86;34.97;102451.28;5101427;28;20061;-69
2023/03/04 06:47:03;;;;;;;4.85;1.38;;;;;;;19.87;34.58;102452.13;5097996;28;20030;-70
2023/03/04 06:49:29;;;;;;;4.53;1.38;;;;;;;19.84;34.80;102453.28;5097570;28;20024;-70
2023/03/04 06:51:54;;;;;;;3.85;1.55;;;;;;;19.90;35.23;102455.41;5080737;28;20088;-70
2023/03/04 06:54:19;;;;;;;3.90;1.30;;;;;;;19.68;34.62;102412.47;5098994;28;20048;-70
2023/03/04 06:56:45;;;;;;;5.70;1.20;;;;;;;19.77;35.03;102437.78;5098216;28;20035;-69
2023/03/04 06:59:10;;;;;;;3.10;1.48;;;;;;;19.95;35.02;102458.56;5099589;28;20080;-69
2023/03/04 07:01:36;;;;;;;2.80;1.10;;;;;;;19.88;34.85;102440.34;5097126;28;20032;-69
2023/03/04 07:04:02;;;;;;;3.60;1.23;;;;;;;19.87;34.91;102447.59;5097117;28;20040;-71
2023/03/04 07:06:28;;;;;;;4.00;1.30;;;;;;;19.97;34.67;102453.03;5090686;28;20648;-70
2023/03/04 07:08:53;;;;;;;2.63;1.10;;;;;;;19.98;34.55;102452.03;5087239;28;20042;-69
2023/03/04 07:11:19;;;;;;;3.38;1.38;;;;;;;19.51;34.69;102386.94;5088736;28;20036;-68
2023/03/04 07:13:45;;;;;;;3.83;1.48;;;;;;;19.91;34.78;102434.69;5089036;28;20051;-68
2023/03/04 07:16:13;;;;;;;2.70;0.98;;;;;;;19.58;34.40;102377.34;5095733;28;20036;-68
2023/03/04 07:18:39;;;;;;;3.22;1.20;;;;;;;19.52;34.53;102375.16;5097064;28;20039;-68
2023/03/04 07:21:05;;;;;;;3.35;1.10;;;;;;;19.92;34.50;102439.97;5088798;28;20028;-68
2023/03/04 07:23:31;;;;;;;2.70;1.35;;;;;;;20.06;34.49;102463.00;5096909;28;20397;-68
2023/03/04 07:25:56;;;;;;;2.33;1.10;;;;;;;20.08;34.52;102466.41;5094097;28;20091;-68
2023/03/04 07:28:21;;;;;;;4.03;1.73;;;;;;;19.65;34.54;102392.00;5077720;28;20030;-72
2023/03/04 07:30:47;;;;;;;1.70;0.82;;;;;;;19.98;34.94;102447.50;5087429;28;20028;-71
2023/03/04 07:33:13;;;;;;;2.63;1.15;;;;;;;20.11;34.58;102467.97;5090211;28;20028;-72
2023/03/04 07:35:39;;;;;;;2.67;1.42;;;;;;;19.72;34.53;102411.19;5088692;28;20212;-73
2023/03/04 07:38:04;;;;;;;3.47;1.05;;;;;;;20.13;34.56;102468.69;5091658;28;20028;-71
2023/03/04 07:40:29;;;;;;;3.58;1.30;;;;;;;20.01;34.63;102445.50;5086939;28;20088;-72
2023/03/04 07:42:55;;;;;;;2.15;1.00;;;;;;;20.14;34.48;102463.16;5091852;28;20047;-71
2023/03/04 07:45:21;;;;;;;1.92;0.98;;;;;;;19.80;34.30;102418.63;5088563;28;20054;-71
2023/03/04 07:47:47;;;;;;;1.42;0.85;;;;;;;20.16;34.40;102473.81;5091528;28;20024;-71
2023/03/04 07:50:13;;;;;;;2.63;1.00;;;;;;;20.17;34.46;102462.88;5084866;28;20031;-72
2023/03/04 07:52:40;;;;;;;2.38;1.08;;;;;;;19.32;34.30;102324.84;5087859;28;20123;-72
2023/03/04 07:55:05;;;;;;;2.03;0.90;;;;;;;20.19;34.08;102462.75;5090748;28;20080;-72
2023/03/04 07:57:31;;;;;;;3.67;1.10;;;;;;;19.77;33.95;102403.53;5091827;28;20035;-71
2023/03/04 07:59:56;;;;;;;2.72;0.93;;;;;;;19.57;34.16;102358.56;5085435;28;20052;-71
2023/03/04 08:02:21;;;;;;;2.13;1.20;;;;;;;19.81;33.94;102404.13;5087660;28;20031;-72
2023/03/04 08:04:46;;;;;;;2.67;1.17;;;;;;;20.22;34.02;102468.72;5096130;28;20092;-71
2023/03/04 08:07:12;;;;;;;2.03;0.90;;;;;;;19.66;33.74;102380.19;5096554;28;20404;-71
2023/03/04 08:09:37;;;;;;;2.63;1.10;;;;;;;20.22;34.17;102471.44;5091433;28;20075;-71
2023/03/04 08:12:02;;;;;;;3.05;1.13;;;;;;;20.25;34.08;102472.97;5092415;28;20048;-71
2023/03/04 08:14:28;;;;;;;2.72;0.95;;;;;;;20.26;34.05;102477.38;5087771;28;20028;-72
2023/03/04 08:16:53;;;;;;;1.55;0.70;;;;;;;20.08;33.68;102441.25;5101266;28;20114;-72
2023/03/04 08:19:18;;;;;;;1.95;1.25;;;;;;;20.27;34.02;102478.25;5091295;28;20047;-71
2023/03/04 08:21:44;;;;;;;1.77;0.80;;;;;;;20.30;33.91;102476.09;5100671;28;20032;-71
2023/03/04 08:24:09;;;;;;;3.42;0.90;;;;;;;20.14;33.78;102444.25;5103682;28;20032;-72
2023/03/04 08:26:44;;;;;;;2.15;1.00;;;;;;;20.30;33.54;102469.84;5102758;28;20386;-75
2023/03/04 08:29:15;;;;;;;2.30;1.10;;;;;;;20.32;33.58;102474.13;5089248;28;20020;-73
2023/03/04 08:31:40;;;;;;;2.63;1.30;;;;;;;20.33;33.51;102470.44;5104914;28;20039;-72
2023/03/04 08:34:07;;;;;;;3.55;1.20;;;;;;;20.20;33.60;102449.09;5087679;28;20126;-71
2023/03/04 08:36:32;;;;;;;1.65;0.77;;;;;;;19.90;33.77;102404.13;5090588;28;20036;-70
2023/03/04 08:38:58;;;;;;;1.70;0.90;;;;;;;20.38;33.95;102478.97;5097347;28;20098;-70
2023/03/04 08:41:25;;;;;;;1.25;0.73;;;;;;;20.40;33.90;102473.44;5098117;28;20600;-71
2023/03/04 08:43:50;;;;;;;2.17;0.80;;;;;;;20.39;33.77;102471.69;5096513;28;20043;-70
2023/03/04 08:46:15;;;;;;;3.13;1.10;;;;;;;20.44;33.81;102473.00;5088718;28;20043;-70
2023/03/04 08:48:41;;;;;;;1.85;1.00;;;;;;;20.46;33.49;102476.41;5092058;28;20020;-69
2023/03/04 08:51:08;;;;;;;1.55;0.80;;;;;;;20.49;33.74;102472.63;5099141;28;20028;-71
2023/03/04 08:53:33;;;;;;;2.33;1.00;;;;;;;20.50;33.62;102479.72;5092043;28;20024;-71
2023/03/04 08:55:59;;;;;;;3.35;1.05;;;;;;;20.51;33.62;102480.56;5091798;28;20487;-71
2023/03/04 08:58:24;;;;;;;1.02;0.70;;;;;;;20.52;33.73;102471.47;5092261;28;20032;-71
2023/03/04 09:00:50;;;;;;;2.58;1.23;;;;;;;20.46;33.75;102465.59;5098045;28;20023;-71
2023/03/04 09:03:18;;;;;;;1.58;0.88;;;;;;;20.55;33.56;102488.25;5100569;28;20497;-70
2023/03/04 09:05:45;;;;;;;0.90;0.60;;;;;;;20.56;33.61;102471.06;5098591;28;20020;-69
2023/03/04 09:08:10;;;;;;;2.00;0.90;;;;;;;20.59;33.79;102475.31;5086591;28;20119;-70
2023/03/04 09:10:35;;;;;;;1.80;0.90;;;;;;;20.59;33.37;102468.06;5094359;28;20025;-70
2023/03/04 09:13:00;;;;;;;4.22;1.00;;;;;;;20.62;33.48;102464.22;5074826;28;20047;-71
2023/03/04 09:15:26;;;;;;;1.42;0.80;;;;;;;20.56;33.26;102451.28;5090937;28;20051;-71
2023/03/04 09:17:51;;;;;;;1.95;0.90;;;;;;;20.65;33.26;102462.09;5102993;28;20036;-70
2023/03/04 09:20:17;;;;;;;1.83;0.80;;;;;;;20.62;33.33;102458.81;5094291;28;20077;-71
2023/03/04 09:22:42;;;;;;;1.13;0.68;;;;;;;20.68;33.18;102452.84;5092206;28;20480;-70
2023/03/04 09:25:08;;;;;;;1.25;0.73;;;;;;;20.72;33.12;102462.38;5091752;28;20029;-70
2023/03/04 09:27:33;;;;;;;1.88;0.90;;;;;;;20.75;33.35;102459.38;5091008;28;20039;-70
2023/03/04 09:29:59;;;;;;;1.55;0.90;;;;;;;20.76;33.28;102463.78;5094301;28;20032;-71
2023/03/04 09:32:24;;;;;;;1.00;0.50;;;;;;;20.78;33.47;102461.81;5090277;28;20044;-71
2023/03/04 09:34:49;;;;;;;2.00;0.88;;;;;;;20.73;33.12;102453.28;5092540;28;20072;-70
2023/03/04 09:37:14;;;;;;;2.80;1.00;;;;;;;20.81;33.42;102456.09;5101639;28;20024;-70
2023/03/04 09:39:40;;;;;;;1.35;0.60;;;;;;;20.33;33.10;102366.94;5088754;28;20036;-70
2023/03/04 09:42:06;;;;;;;1.50;0.63;;;;;;;20.84;33.02;102455.81;5094197;28;20121;-69
2023/03/04 09:44:36;;;;;;;2.42;1.10;;;;;;;20.43;33.15;102387.56;5089320;28;20067;-70
2023/03/04 09:47:02;;;;;;;;;;;;;;;20.90;33.22;102457.13;5090880;28;20098;-70
2023/03/04 09:49:27;;;;;;;1.73;0.70;;;;;;;20.32;32.84;102362.53;5077008;28;19908;-70
2023/03/04 09:51:58;;;;;;;1.90;0.70;;;;;;;20.91;33.00;102461.50;5095256;28;20065;-70
2023/03/04 09:54:31;;;;;;;1.20;0.60;;;;;;;20.91;32.97;102462.38;5090355;28;20020;-70
2023/03/04 09:57:00;;;;;;;1.40;0.60;;;;;;;20.93;32.99;102457.66;5082764;28;20047;-70
2023/03/04 09:59:34;;;;;;;;;;;;;;;20.96;33.03;102464.63;5092707;28;20024;-70
2023/03/04 10:02:06;;;;;;;2.15;0.77;;;;;;;20.69;33.12;102424.84;5090660;28;19957;-70
2023/03/04 10:04:47;;;;;;;1.75;0.82;;;;;;;20.99;33.09;102468.91;5088813;28;20052;-69
2023/03/04 10:07:17;;;;;;;0.90;0.60;;;;;;;20.48;32.96;102381.75;5090458;28;20024;-70
2023/03/04 10:09:50;;;;;;;2.03;0.70;;;;;;;20.55;33.00;102390.13;5098748;28;20032;-71
2023/03/04 10:12:19;;;;;;;2.22;1.08;;;;;;;20.80;32.93;102432.78;5091039;28;20094;-70
2023/03/04 10:14:50;;;;;;;;;;;;;;;21.08;33.06;102470.75;5090281;28;20079;-70
2023/03/04 10:17:18;;;;;;;2.03;0.70;;;;;;;21.12;32.71;102461.34;5097618;28;19907;-70
2023/03/04 10:19:53;;;;;;;2.40;0.60;;;;;;;21.13;33.20;102461.19;5096672;28;20066;-70
2023/03/04 10:22:24;;;;;;;1.17;0.70;;;;;;;21.14;33.03;102456.63;5096905;28;20131;-70
2023/03/04 10:24:56;;;;;;;0.90;0.60;;;;;;;20.40;33.23;102333.81;5091939;28;20064;-68
2023/03/04 10:27:23;;;;;;;0.80;0.60;;;;;;;21.16;32.84;102441.97;5085714;28;20027;-69
2023/03/04 10:29:49;;;;;;;1.25;0.55;;;;;;;21.26;32.61;102449.19;5099689;28;20020;-69
2023/03/04 10:32:19;;;;;;;2.13;0.65;;;;;;;21.25;32.98;102442.09;5099168;28;20557;-70
2023/03/04 10:34:45;;;;;;;1.20;0.70;;;;;;;20.99;32.76;102396.75;5093550;28;20028;-70
2023/03/04 10:37:10;;;;;;;2.13;0.60;;;;;;;21.37;32.79;102457.19;5080819;28;20039;-70
2023/03/04 10:39:46;;;;;;;1.48;0.60;;;;;;;21.39;32.58;102452.47;5091181;28;20098;-70
2023/03/04 10:42:14;;;;;;;1.65;0.70;;;;;;;21.40;32.64;102451.44;5097394;28;20401;-69
2023/03/04 10:44:42;;;;;;;0.70;0.50;;;;;;;20.96;32.54;102373.56;5101880;28;20024;-70
2023/03/04 10:47:13;;;;;;;1.27;0.60;;;;;;;21.26;32.61;102414.88;5102838;28;20023;-70
2023/03/04 10:49:59;;;;;;;2.00;0.70;;;;;;;21.44;32.89;102450.16;5095351;28;20269;-70
2023/03/04 10:52:29;;;;;;;6.97;1.00;;;;;;;21.44;32.47;102448.31;5099263;28;20022;-70
2023/03/04 10:54:57;;;;;;;1.38;0.63;;;;;;;21.44;32.58;102448.31;5099576;28;20090;-70
2023/03/04 10:57:35;;;;;;;1.40;0.63;;;;;;;21.06;32.58;102378.91;5097836;28;20469;-70
2023/03/04 11:00:28;;;;;;;0.85;0.50;;;;;;;21.48;32.54;102448.00;5087849;28;20032;-69
2023/03/04 11:03:26;;;;;;;2.53;0.70;;;;;;;21.47;32.84;102447.16;5091314;28;20138;-70
2023/03/04 11:06:16;;;;;;;0.75;0.60;;;;;;;21.52;32.74;102444.00;5092422;28;20468;-70
2023/03/04 11:08:41;;;;;;;2.08;0.75;;;;;;;21.50;32.51;102436.06;5087880;28;20024;-70
2023/03/04 11:11:30;;;;;;;1.27;0.60;;;;;;;21.12;32.75;102386.47;5085923;28;20039;-69
2023/03/04 11:13:58;;;;;;;1.02;0.50;;;;;;;21.54;32.31;102436.63;5094626;28;20500;-70
2023/03/04 11:16:26;;;;;;;1.23;0.70;;;;;;;21.47;32.73;102430.94;5094852;28;20091;-69
2023/03/04 11:18:56;;;;;;;2.45;0.77;;;;;;;21.42;32.87;102425.97;5097058;28;20092;-71
2023/03/04 11:21:34;;;;;;;1.20;0.98;;;;;;;21.48;32.41;102420.94;5091322;28;20020;-71
2023/03/04 11:24:02;;;;;;;1.67;0.77;;;;;;;21.61;32.36;102435.84;5082874;28;20032;-70
2023/03/04 11:26:38;;;;;;;1.35;0.43;;;;;;;21.53;32.64;102421.34;5085410;28;20032;-71